Sanko Independence — A8QJ9 — position and weather

sailwx.info

Track history (hours):
 
Tides and Currents Weather Stations Pressure Air Temp Water Temp Dewpoint Dewpoint Depression Visibility Wind Speed Wind Dir Waves Ship Positions

Sanko Independence

Last reported at 2015-Jun-07 20:04 UTC. Time now 2015-Jul-06 09:14 UTC.
Position N 13°40' W 060°37'.
Warning: this ship's position is 28 days out of date.

Length 174 m; draft 10.6 m.

Type: Ship (hazmat cat C). MMSI: 636013946.

Date/timePositionNaut miles runAvg speedWind from/ knotsBaromVisibWave heightAir tempDewpointWater temp
2015-Jun-07 20:04N 13°40' W 060°37'  
2015-May-31 17:03N 32°10' W 015°48'20316.0
2015-May-31 04:22N 33°44' W 012°14'9515.7
2015-May-30 22:20N 34°27' W 010°32'2815.6
2015-May-30 20:31N 34°40' W 010°02'1715.9
2015-May-30 19:28N 34°48' W 009°43'1615.8
2015-May-30 18:27N 34°56' W 009°26'2015.6
2015-May-30 17:10N 35°05' W 009°05'5815.2
2015-May-30 13:19N 35°32' W 008°01'1215.1
2015-May-30 12:31N 35°37' W 007°48'1515.3
2015-May-30 11:33N 35°44' W 007°32'1615.5
2015-May-30 10:30N 35°51' W 007°13'1415.2
2015-May-30 09:33N 35°56' W 006°57'1615.1
2015-May-30 08:30N 35°57' W 006°37'3715.7
2015-May-30 06:10N 35°58' W 005°52'915.1
2015-May-30 05:33N 35°58' W 005°41'1312.7
2015-May-30 04:34N 36°01' W 005°25'1313.4
2015-May-30 03:33N 36°02' W 005°09'10615.0
2015-May-29 20:28N 36°09' W 002°58'1415.4
2015-May-29 19:34N 36°09' W 002°40'1615.5
2015-May-29 18:31N 36°08' W 002°20'1515.7
2015-May-29 17:33N 36°08' W 002°02'1615.4
2015-May-29 16:32N 36°07' W 001°42'1414.8
2015-May-29 15:33N 36°07' W 001°24'1515.0
2015-May-29 14:33N 36°06' W 001°06'1615.5
2015-May-29 13:33N 36°06' W 000°47'1515.0
2015-May-29 12:33N 36°05' W 000°28'1414.2
2015-May-29 11:34N 35°55' W 000°16'6 5.3
2015-May-29 10:26N 35°49' W 000°16'0 0.0
2015-May-29 09:30N 35°49' W 000°16'0 0.0
2015-May-29 08:30N 35°49' W 000°16'0 0.0
2015-May-29 06:14N 35°49' W 000°16'0 0.0
2015-May-29 00:05N 35°49' W 000°16'0 0.0
2015-May-28 23:20N 35°49' W 000°16'0 0.0
2015-May-28 22:14N 35°49' W 000°16'0 0.0
2015-May-28 20:17N 35°49' W 000°16'  
Track history (hours):
 
Tides and Currents Weather Stations Pressure Air Temp Water Temp Dewpoint Dewpoint Depression Visibility Wind Speed Wind Dir Waves Ship Positions

Sanko Independence

Last reported at 2015-Jun-07 20:04 UTC. Time now 2015-Jul-06 09:14 UTC.
Position N 13°40' W 060°37'.
Warning: this ship's position is 28 days out of date.

Length 174 m; draft 10.6 m.

Type: Ship (hazmat cat C). MMSI: 636013946.

Date/timePositionNaut miles runAvg speedWind from/ knotsBaromVisibWave heightAir tempDewpointWater temp
2015-Jun-07 20:04N 13°40' W 060°37'  
2015-May-31 17:03N 32°10' W 015°48'20316.0
2015-May-31 04:22N 33°44' W 012°14'9515.7
2015-May-30 22:20N 34°27' W 010°32'2815.6
2015-May-30 20:31N 34°40' W 010°02'1715.9
2015-May-30 19:28N 34°48' W 009°43'1615.8
2015-May-30 18:27N 34°56' W 009°26'2015.6
2015-May-30 17:10N 35°05' W 009°05'5815.2
2015-May-30 13:19N 35°32' W 008°01'1215.1
2015-May-30 12:31N 35°37' W 007°48'1515.3
2015-May-30 11:33N 35°44' W 007°32'1615.5
2015-May-30 10:30N 35°51' W 007°13'1415.2
2015-May-30 09:33N 35°56' W 006°57'1615.1
2015-May-30 08:30N 35°57' W 006°37'3715.7
2015-May-30 06:10N 35°58' W 005°52'915.1
2015-May-30 05:33N 35°58' W 005°41'1312.7
2015-May-30 04:34N 36°01' W 005°25'1313.4
2015-May-30 03:33N 36°02' W 005°09'10615.0
2015-May-29 20:28N 36°09' W 002°58'1415.4
2015-May-29 19:34N 36°09' W 002°40'1615.5
2015-May-29 18:31N 36°08' W 002°20'1515.7
2015-May-29 17:33N 36°08' W 002°02'1615.4
2015-May-29 16:32N 36°07' W 001°42'1414.8
2015-May-29 15:33N 36°07' W 001°24'1515.0
2015-May-29 14:33N 36°06' W 001°06'1615.5
2015-May-29 13:33N 36°06' W 000°47'1515.0
2015-May-29 12:33N 36°05' W 000°28'1414.2
2015-May-29 11:34N 35°55' W 000°16'6 5.3
2015-May-29 10:26N 35°49' W 000°16'0 0.0
2015-May-29 09:30N 35°49' W 000°16'0 0.0
2015-May-29 08:30N 35°49' W 000°16'0 0.0
2015-May-29 06:14N 35°49' W 000°16'0 0.0
2015-May-29 00:05N 35°49' W 000°16'0 0.0
2015-May-28 23:20N 35°49' W 000°16'0 0.0
2015-May-28 22:14N 35°49' W 000°16'0 0.0
2015-May-28 20:17N 35°49' W 000°16'  

Dump ship's entire track history